DIYO

Details ICAO DIYO (ASK)
Name YAMOUSSOUKRO
Region Côte d'Ivoire
Timezone Africa/Abidjan (UTC+0.0)
Plans Departing 4
Arriving 8
Stats Elevation 699 ft / 213 m (AMSL)
Location 6.903166° -5.365579°
Runways 1
Magnetic Variation 4.682° W
Sunrise 2017-12-18 06:27:47 UTC / 2017-12-18 06:27:47 Local
Sunset 2017-12-18 18:11:05 UTC / 2017-12-18 18:11:05 Local
Advertisement - Login to hide

Runways

ID Width Length Bearing (true) Bearing (mag) Surface Threshold Offset Overrun Length
05 148 ft / 45 m 9,946 ft / 3,032 m 41.92° 46.60° Asphalt 0 ft / 0 m 330 ft / 101 m
23 148 ft / 45 m 9,946 ft / 3,032 m 221.92° 226.60° Asphalt 0 ft / 0 m 330 ft / 101 m

Map

Weather


0- 5 10 15 20 25 30 35+ Temperature / ° C

Clouds and Precipitation
Forecast for 2017-12-18 12:00 UTC. Updated 2 hours ago

Ground ~20,000 ft ~40,000 ft Winds

METAR

Not found

TAF

TAF DIYO 181100Z 1812/1912 24008KT 8000 SCT013 TEMPO 1818/1824 BKN013 TEMPO 1905/1908 4000 BR

Frequencies

Tower 118.50 MHz TWR
Warning: Do not use this data for real-world aviation or navigation. No guarantee of current accuracy is given.